createdAt,value
2018-11-14T00:00:03.359Z,6.19
2018-11-14T00:00:15.786Z,6.19
2018-11-14T00:00:28.218Z,6.19
2018-11-14T00:00:40.650Z,6.19
2018-11-14T00:00:53.049Z,6.19
2018-11-14T00:01:05.452Z,6.19
2018-11-14T00:01:18.166Z,6.19
2018-11-14T00:01:30.553Z,6.19
2018-11-14T00:01:42.938Z,6.19
2018-11-14T00:01:55.328Z,6.19
2018-11-14T00:02:07.730Z,6.19
2018-11-14T00:02:20.143Z,6.19
2018-11-14T00:02:32.536Z,6.19
2018-11-14T00:02:44.920Z,6.19
2018-11-14T00:02:57.376Z,9.65
2018-11-14T00:03:09.804Z,9.65
2018-11-14T00:03:22.286Z,9.65
2018-11-14T00:03:34.781Z,9.65
2018-11-14T00:03:47.180Z,9.65
2018-11-14T00:03:59.598Z,9.65
2018-11-14T00:04:12.022Z,9.65
2018-11-14T00:04:24.424Z,9.65
2018-11-14T00:04:36.801Z,9.65
2018-11-14T00:04:49.201Z,9.65
2018-11-14T00:05:01.764Z,9.65
2018-11-14T00:05:14.283Z,9.65
2018-11-14T00:05:26.781Z,9.65
2018-11-14T00:05:39.190Z,9.65
2018-11-14T00:05:51.589Z,9.65
2018-11-14T00:06:03.977Z,9.65
2018-11-14T00:06:16.388Z,9.65
2018-11-14T00:06:28.788Z,9.65
2018-11-14T00:06:41.255Z,9.65
2018-11-14T00:06:53.647Z,9.65
2018-11-14T00:07:06.071Z,9.65
2018-11-14T00:07:18.534Z,9.65
2018-11-14T00:07:30.951Z,9.65
2018-11-14T00:07:43.339Z,9.65
2018-11-14T00:07:55.728Z,9.65
2018-11-14T00:08:08.139Z,9.65
2018-11-14T00:08:20.532Z,9.65
2018-11-14T00:08:32.936Z,9.65
2018-11-14T00:08:45.387Z,9.65
2018-11-14T00:08:57.801Z,9.65
2018-11-14T00:09:10.266Z,9.65
2018-11-14T00:09:22.881Z,9.65
2018-11-14T00:09:36.163Z,9.65
2018-11-14T00:09:50.253Z,9.65
2018-11-14T00:10:02.953Z,9.65
2018-11-14T00:10:16.772Z,9.65
2018-11-14T00:10:30.752Z,9.65
2018-11-14T00:10:43.234Z,9.65
2018-11-14T00:10:55.627Z,9.65
2018-11-14T00:11:08.064Z,9.65
2018-11-14T00:11:20.461Z,9.65
2018-11-14T00:11:32.853Z,9.65
2018-11-14T00:11:45.245Z,9.65
2018-11-14T00:11:57.978Z,9.65
2018-11-14T00:12:10.388Z,9.65
2018-11-14T00:12:22.817Z,9.65
2018-11-14T00:12:35.213Z,9.65
2018-11-14T00:12:47.609Z,8.98
2018-11-14T00:13:00.004Z,8.98
2018-11-14T00:13:12.418Z,8.98
2018-11-14T00:13:24.811Z,8.98
2018-11-14T00:13:37.190Z,8.98
2018-11-14T00:13:49.610Z,8.98
2018-11-14T00:14:02.209Z,8.98
2018-11-14T00:14:14.607Z,8.98
2018-11-14T00:14:26.993Z,8.98
2018-11-14T00:14:39.395Z,8.98
2018-11-14T00:14:51.819Z,8.98
2018-11-14T00:15:04.247Z,8.98
2018-11-14T00:15:16.647Z,8.98
2018-11-14T00:15:29.104Z,8.98
2018-11-14T00:15:41.492Z,8.98
2018-11-14T00:15:54.170Z,8.98
2018-11-14T00:16:06.870Z,8.98
2018-11-14T00:16:19.392Z,8.98
2018-11-14T00:16:31.797Z,8.98
2018-11-14T00:16:44.203Z,8.98
2018-11-14T00:16:56.587Z,8.98
2018-11-14T00:17:08.966Z,8.98
2018-11-14T00:17:21.384Z,8.98
2018-11-14T00:17:33.759Z,8.98
2018-11-14T00:17:46.166Z,8.98
2018-11-14T00:17:58.574Z,8.98
2018-11-14T00:18:10.998Z,8.98
2018-11-14T00:18:23.381Z,8.98
2018-11-14T00:18:35.764Z,8.98
2018-11-14T00:18:48.149Z,8.98
2018-11-14T00:19:00.542Z,8.98
2018-11-14T00:19:12.935Z,8.98
2018-11-14T00:19:25.959Z,8.98
2018-11-14T00:19:39.884Z,8.98
2018-11-14T00:19:52.286Z,8.98
2018-11-14T00:20:05.313Z,8.98
2018-11-14T00:20:18.636Z,8.98
2018-11-14T00:20:31.038Z,8.98
2018-11-14T00:20:43.428Z,8.98
2018-11-14T00:20:55.817Z,8.98
2018-11-14T00:21:08.273Z,8.98
2018-11-14T00:21:21.454Z,8.98
2018-11-14T00:21:33.831Z,8.98
2018-11-14T00:21:47.371Z,8.98
2018-11-14T00:21:59.744Z,8.98
2018-11-14T00:22:12.146Z,8.98
2018-11-14T00:22:24.553Z,8.98
2018-11-14T00:22:36.954Z,8.98
2018-11-14T00:22:49.426Z,7.08
2018-11-14T00:23:01.847Z,7.08
2018-11-14T00:23:14.242Z,7.08
2018-11-14T00:23:26.728Z,7.08
2018-11-14T00:23:39.138Z,7.08
2018-11-14T00:23:51.533Z,7.08
2018-11-14T00:24:03.995Z,7.08
2018-11-14T00:24:16.415Z,7.08
2018-11-14T00:24:29.387Z,7.08
2018-11-14T00:24:42.411Z,7.08
2018-11-14T00:24:56.657Z,7.08
2018-11-14T00:25:09.105Z,7.08
2018-11-14T00:25:21.679Z,7.08
2018-11-14T00:25:34.072Z,7.08
2018-11-14T00:25:46.461Z,7.08
2018-11-14T00:25:58.854Z,7.08
2018-11-14T00:26:11.313Z,7.08
2018-11-14T00:26:23.738Z,7.08
2018-11-14T00:26:36.264Z,7.08
2018-11-14T00:26:49.606Z,7.08
2018-11-14T00:27:03.144Z,7.08
2018-11-14T00:27:15.536Z,7.08
2018-11-14T00:27:28.188Z,7.08
2018-11-14T00:27:40.627Z,7.08
2018-11-14T00:27:53.876Z,7.08
2018-11-14T00:28:08.285Z,7.08
2018-11-14T00:28:20.948Z,7.08
2018-11-14T00:28:33.565Z,7.08
2018-11-14T00:28:46.647Z,7.08
2018-11-14T00:28:59.655Z,7.08
2018-11-14T00:29:12.137Z,7.08
2018-11-14T00:29:25.123Z,7.08
2018-11-14T00:29:39.028Z,7.08
2018-11-14T00:29:52.049Z,7.08
2018-11-14T00:30:04.426Z,7.08
2018-11-14T00:30:16.991Z,7.08
2018-11-14T00:30:30.033Z,7.08
2018-11-14T00:30:42.429Z,7.08
2018-11-14T00:30:54.816Z,7.08
2018-11-14T00:31:07.213Z,7.08
2018-11-14T00:31:19.601Z,7.08
2018-11-14T00:31:32.006Z,7.08
2018-11-14T00:31:44.416Z,7.08
2018-11-14T00:31:56.858Z,7.08
2018-11-14T00:32:09.287Z,7.08
2018-11-14T00:32:21.745Z,7.08
2018-11-14T00:32:34.131Z,7.08
2018-11-14T00:32:46.552Z,7.08
2018-11-14T00:32:59.151Z,11.45
2018-11-14T00:33:12.328Z,11.45
2018-11-14T00:33:26.477Z,11.45
2018-11-14T00:33:38.906Z,11.45
2018-11-14T00:33:51.511Z,11.45
2018-11-14T00:34:03.980Z,11.45
2018-11-14T00:34:16.394Z,11.45
2018-11-14T00:34:29.287Z,11.45
2018-11-14T00:34:42.149Z,11.45
2018-11-14T00:34:55.738Z,11.45
2018-11-14T00:35:09.657Z,11.45
2018-11-14T00:35:22.074Z,11.45
2018-11-14T00:35:34.898Z,11.45
2018-11-14T00:35:49.404Z,11.45
2018-11-14T00:36:01.984Z,11.45
2018-11-14T00:36:14.401Z,11.45
2018-11-14T00:36:26.953Z,11.45
2018-11-14T00:36:39.343Z,11.45
2018-11-14T00:36:51.719Z,11.45
2018-11-14T00:37:04.512Z,11.45
2018-11-14T00:37:16.902Z,11.45
2018-11-14T00:37:29.318Z,11.45
2018-11-14T00:37:41.769Z,11.45
2018-11-14T00:37:54.171Z,11.45
2018-11-14T00:38:06.574Z,11.45
2018-11-14T00:38:18.952Z,11.45
2018-11-14T00:38:31.344Z,11.45
2018-11-14T00:38:43.741Z,11.45
2018-11-14T00:38:56.151Z,11.45
2018-11-14T00:39:08.539Z,11.45
2018-11-14T00:39:20.921Z,11.45
2018-11-14T00:39:33.317Z,11.45
2018-11-14T00:39:45.756Z,11.45
2018-11-14T00:39:58.141Z,11.45
2018-11-14T00:40:10.560Z,11.45
2018-11-14T00:40:22.966Z,11.45
2018-11-14T00:40:35.365Z,11.45
2018-11-14T00:40:47.764Z,11.45
2018-11-14T00:41:00.279Z,11.45
2018-11-14T00:41:12.670Z,11.45
2018-11-14T00:41:25.146Z,11.45
2018-11-14T00:41:37.550Z,11.45
2018-11-14T00:41:49.946Z,11.45
2018-11-14T00:42:02.341Z,11.45
2018-11-14T00:42:14.735Z,11.45
2018-11-14T00:42:27.130Z,11.45
2018-11-14T00:42:39.655Z,11.45
2018-11-14T00:42:52.045Z,8.45
2018-11-14T00:43:04.504Z,8.45
2018-11-14T00:43:16.885Z,8.45
2018-11-14T00:43:29.289Z,8.45
2018-11-14T00:43:41.671Z,8.45
2018-11-14T00:43:54.046Z,8.45
2018-11-14T00:44:06.444Z,8.45
2018-11-14T00:44:18.985Z,8.45
2018-11-14T00:44:31.354Z,8.45
2018-11-14T00:44:43.750Z,8.45
2018-11-14T00:44:56.150Z,8.45
2018-11-14T00:45:08.551Z,8.45
2018-11-14T00:45:21.193Z,8.45
2018-11-14T00:45:33.585Z,8.45
2018-11-14T00:45:45.972Z,8.45
2018-11-14T00:45:58.367Z,8.45
2018-11-14T00:46:10.745Z,8.45
2018-11-14T00:46:23.136Z,8.45
2018-11-14T00:46:35.570Z,8.45
2018-11-14T00:46:47.937Z,8.45
2018-11-14T00:47:00.321Z,8.45
2018-11-14T00:47:12.856Z,8.45
2018-11-14T00:47:25.261Z,8.45
2018-11-14T00:47:37.786Z,8.45
2018-11-14T00:47:50.191Z,8.45
2018-11-14T00:48:02.618Z,8.45
2018-11-14T00:48:15.001Z,8.45
2018-11-14T00:48:27.403Z,8.45
2018-11-14T00:48:39.792Z,8.45
2018-11-14T00:48:52.195Z,8.45
2018-11-14T00:49:04.592Z,8.45
2018-11-14T00:49:16.968Z,8.45
2018-11-14T00:49:29.354Z,8.45
2018-11-14T00:49:41.721Z,8.45
2018-11-14T00:49:54.436Z,8.45
2018-11-14T00:50:06.837Z,8.45
2018-11-14T00:50:19.221Z,8.45
2018-11-14T00:50:31.672Z,8.45
2018-11-14T00:50:44.064Z,8.45
2018-11-14T00:50:56.448Z,8.45
2018-11-14T00:51:08.842Z,8.45
2018-11-14T00:51:21.246Z,8.45
2018-11-14T00:51:33.634Z,8.45
2018-11-14T00:51:46.076Z,8.45
2018-11-14T00:51:58.489Z,8.45
2018-11-14T00:52:11.306Z,8.45
2018-11-14T00:52:23.670Z,8.45
2018-11-14T00:52:36.072Z,8.45
2018-11-14T00:52:48.473Z,7.78
2018-11-14T00:53:00.864Z,7.78
2018-11-14T00:53:13.289Z,7.78
2018-11-14T00:53:25.711Z,7.78
2018-11-14T00:53:38.301Z,7.78
2018-11-14T00:53:50.696Z,7.78
2018-11-14T00:54:03.101Z,7.78
2018-11-14T00:54:15.487Z,7.78
2018-11-14T00:54:27.875Z,7.78
2018-11-14T00:54:40.323Z,7.78
2018-11-14T00:54:52.761Z,7.78
2018-11-14T00:55:05.157Z,7.78
2018-11-14T00:55:17.576Z,7.78
2018-11-14T00:55:29.950Z,7.78
2018-11-14T00:55:42.349Z,7.78
2018-11-14T00:55:54.746Z,7.78
2018-11-14T00:56:07.139Z,7.78
2018-11-14T00:56:19.524Z,7.78
2018-11-14T00:56:31.908Z,7.78
2018-11-14T00:56:44.300Z,7.78
2018-11-14T00:56:56.712Z,7.78
2018-11-14T00:57:09.109Z,7.78
2018-11-14T00:57:21.542Z,7.78
2018-11-14T00:57:34.035Z,7.78
2018-11-14T00:57:46.446Z,7.78
2018-11-14T00:57:58.902Z,7.78
2018-11-14T00:58:11.295Z,7.78
2018-11-14T00:58:24.076Z,7.78
2018-11-14T00:58:36.455Z,7.78
2018-11-14T00:58:48.890Z,7.78
2018-11-14T00:59:01.294Z,7.78
2018-11-14T00:59:13.668Z,7.78
2018-11-14T00:59:26.207Z,7.78
2018-11-14T00:59:38.615Z,7.78
2018-11-14T00:59:51.195Z,7.78
2018-11-14T01:00:04.389Z,7.78
2018-11-14T01:00:17.794Z,7.78
2018-11-14T01:00:30.221Z,7.78
2018-11-14T01:00:42.629Z,7.78
2018-11-14T01:00:55.048Z,7.78
2018-11-14T01:01:07.475Z,7.78
2018-11-14T01:01:20.199Z,7.78
2018-11-14T01:01:33.598Z,7.78
2018-11-14T01:01:48.036Z,7.78
2018-11-14T01:02:00.594Z,7.78
2018-11-14T01:02:13.757Z,7.78
2018-11-14T01:02:26.170Z,7.78
2018-11-14T01:02:40.697Z,7.78
2018-11-14T01:02:53.153Z,10.75
2018-11-14T01:03:05.604Z,10.75
2018-11-14T01:03:18.133Z,10.75
2018-11-14T01:03:30.662Z,10.75
2018-11-14T01:03:43.075Z,10.75
2018-11-14T01:03:55.469Z,10.75
2018-11-14T01:04:07.915Z,10.75
2018-11-14T01:04:20.461Z,10.75
2018-11-14T01:04:32.876Z,10.75
2018-11-14T01:04:45.280Z,10.75
2018-11-14T01:04:57.888Z,10.75
2018-11-14T01:05:10.276Z,10.75
2018-11-14T01:05:22.874Z,10.75
2018-11-14T01:05:35.269Z,10.75
2018-11-14T01:05:47.838Z,10.75
2018-11-14T01:06:00.235Z,10.75
2018-11-14T01:06:12.670Z,10.75
2018-11-14T01:06:25.156Z,10.75
2018-11-14T01:06:37.559Z,10.75
2018-11-14T01:06:49.936Z,10.75
2018-11-14T01:07:02.374Z,10.75
2018-11-14T01:07:14.851Z,10.75
2018-11-14T01:07:27.270Z,10.75
2018-11-14T01:07:39.675Z,10.75
2018-11-14T01:07:52.143Z,10.75
2018-11-14T01:08:04.671Z,10.75
2018-11-14T01:08:17.052Z,10.75
2018-11-14T01:08:29.593Z,10.75
2018-11-14T01:08:42.010Z,10.75
2018-11-14T01:08:54.402Z,10.75
2018-11-14T01:09:07.099Z,10.75
2018-11-14T01:09:20.799Z,10.75
2018-11-14T01:09:33.713Z,10.75
2018-11-14T01:09:46.095Z,10.75
2018-11-14T01:09:58.729Z,10.75
2018-11-14T01:10:11.157Z,10.75
2018-11-14T01:10:23.670Z,10.75
2018-11-14T01:10:36.070Z,10.75
2018-11-14T01:10:48.621Z,10.75
2018-11-14T01:11:01.013Z,10.75
2018-11-14T01:11:13.415Z,10.75
2018-11-14T01:11:25.794Z,10.75
2018-11-14T01:11:38.474Z,10.75
2018-11-14T01:11:50.863Z,10.75
2018-11-14T01:12:03.302Z,10.75
2018-11-14T01:12:16.854Z,10.75
2018-11-14T01:12:29.437Z,10.75
2018-11-14T01:12:42.104Z,10.75
2018-11-14T01:12:54.563Z,15
2018-11-14T01:13:07.661Z,15
2018-11-14T01:13:22.524Z,15
2018-11-14T01:13:35.455Z,15
2018-11-14T01:13:47.851Z,15
2018-11-14T01:14:00.248Z,15
2018-11-14T01:14:12.778Z,15
2018-11-14T01:14:25.175Z,15
2018-11-14T01:14:37.583Z,15
2018-11-14T01:14:49.968Z,15
2018-11-14T01:15:02.457Z,15
2018-11-14T01:15:14.841Z,15
2018-11-14T01:15:27.249Z,15
2018-11-14T01:15:39.664Z,15
2018-11-14T01:15:52.181Z,15
2018-11-14T01:16:04.577Z,15
2018-11-14T01:16:16.976Z,15
2018-11-14T01:16:29.362Z,15
2018-11-14T01:16:41.759Z,15
2018-11-14T01:16:54.152Z,15
2018-11-14T01:17:06.598Z,15
2018-11-14T01:17:19.462Z,15
2018-11-14T01:17:32.882Z,15
2018-11-14T01:17:45.793Z,15
2018-11-14T01:17:58.212Z,15
2018-11-14T01:18:11.392Z,15
2018-11-14T01:18:23.798Z,15
2018-11-14T01:18:36.190Z,15
2018-11-14T01:18:49.308Z,15
2018-11-14T01:19:01.707Z,15
2018-11-14T01:19:14.097Z,15
2018-11-14T01:19:26.509Z,15
2018-11-14T01:19:39.807Z,15
2018-11-14T01:19:52.203Z,15
2018-11-14T01:20:04.589Z,15
2018-11-14T01:20:17.038Z,15
2018-11-14T01:20:29.424Z,15
2018-11-14T01:20:41.820Z,15
2018-11-14T01:20:54.254Z,15
2018-11-14T01:21:06.658Z,15
2018-11-14T01:21:19.066Z,15
2018-11-14T01:21:31.656Z,15
2018-11-14T01:21:45.061Z,15
2018-11-14T01:21:58.523Z,15
2018-11-14T01:22:10.927Z,15
2018-11-14T01:22:23.351Z,15
2018-11-14T01:22:35.747Z,15
2018-11-14T01:22:48.162Z,15
2018-11-14T01:23:00.562Z,10.96
2018-11-14T01:23:12.952Z,10.96
2018-11-14T01:23:25.353Z,10.96
2018-11-14T01:23:37.742Z,10.96
2018-11-14T01:23:50.151Z,10.96
2018-11-14T01:24:02.549Z,10.96
2018-11-14T01:24:14.947Z,10.96
2018-11-14T01:24:27.352Z,10.96
2018-11-14T01:24:39.754Z,10.96
2018-11-14T01:24:52.151Z,10.96
2018-11-14T01:25:04.574Z,10.96
2018-11-14T01:25:16.975Z,10.96
2018-11-14T01:25:29.626Z,10.96
2018-11-14T01:25:42.071Z,10.96
2018-11-14T01:25:54.473Z,10.96
2018-11-14T01:26:06.887Z,10.96
2018-11-14T01:26:19.871Z,10.96
2018-11-14T01:26:32.306Z,10.96
2018-11-14T01:26:44.704Z,10.96
2018-11-14T01:26:57.304Z,10.96
2018-11-14T01:27:10.499Z,10.96
2018-11-14T01:27:24.913Z,10.96
2018-11-14T01:27:37.297Z,10.96
2018-11-14T01:27:49.747Z,10.96
2018-11-14T01:28:02.324Z,10.96
2018-11-14T01:28:14.725Z,10.96
2018-11-14T01:28:27.103Z,10.96
2018-11-14T01:28:39.498Z,10.96
2018-11-14T01:28:51.902Z,10.96
2018-11-14T01:29:04.446Z,10.96
2018-11-14T01:29:17.130Z,10.96
2018-11-14T01:29:29.513Z,10.96
2018-11-14T01:29:41.912Z,10.96
2018-11-14T01:29:54.318Z,10.96
2018-11-14T01:30:06.738Z,10.96
2018-11-14T01:30:19.155Z,10.96
2018-11-14T01:30:31.554Z,10.96
2018-11-14T01:30:44.018Z,10.96
2018-11-14T01:30:56.432Z,10.96
2018-11-14T01:31:08.817Z,10.96
2018-11-14T01:31:21.278Z,10.96
2018-11-14T01:31:33.681Z,10.96
2018-11-14T01:31:46.100Z,10.96
2018-11-14T01:31:58.501Z,10.96
2018-11-14T01:32:10.939Z,10.96
2018-11-14T01:32:23.358Z,10.96
2018-11-14T01:32:35.759Z,10.96
2018-11-14T01:32:48.160Z,10.96
2018-11-14T01:33:00.556Z,11.46
2018-11-14T01:33:12.940Z,11.46
2018-11-14T01:33:25.341Z,11.46
2018-11-14T01:33:37.800Z,11.46
2018-11-14T01:33:50.191Z,11.46
2018-11-14T01:34:03.223Z,11.46
2018-11-14T01:34:16.961Z,11.46
2018-11-14T01:34:29.353Z,11.46
2018-11-14T01:34:41.744Z,11.46
2018-11-14T01:34:54.220Z,11.46
2018-11-14T01:35:06.626Z,11.46
2018-11-14T01:35:19.071Z,11.46
2018-11-14T01:35:31.491Z,11.46
2018-11-14T01:35:44.318Z,11.46
2018-11-14T01:35:58.683Z,11.46
2018-11-14T01:36:11.214Z,11.46
2018-11-14T01:36:24.028Z,11.46
2018-11-14T01:36:36.434Z,11.46
2018-11-14T01:36:48.838Z,11.46
2018-11-14T01:37:01.248Z,11.46
2018-11-14T01:37:13.718Z,11.46
2018-11-14T01:37:26.111Z,11.46
2018-11-14T01:37:38.507Z,11.46
2018-11-14T01:37:50.915Z,11.46
2018-11-14T01:38:03.357Z,11.46
2018-11-14T01:38:15.772Z,11.46
2018-11-14T01:38:28.191Z,11.46
2018-11-14T01:38:40.593Z,11.46
2018-11-14T01:38:52.979Z,11.46
2018-11-14T01:39:05.390Z,11.46
2018-11-14T01:39:17.873Z,11.46
2018-11-14T01:39:30.287Z,11.46
2018-11-14T01:39:42.681Z,11.46
2018-11-14T01:39:55.069Z,11.46
2018-11-14T01:40:07.477Z,11.46
2018-11-14T01:40:19.869Z,11.46
2018-11-14T01:40:32.266Z,11.46
2018-11-14T01:40:44.663Z,11.46
2018-11-14T01:40:57.056Z,11.46
2018-11-14T01:41:10.118Z,11.46
2018-11-14T01:41:22.678Z,11.46
2018-11-14T01:41:35.091Z,11.46
2018-11-14T01:41:47.491Z,11.46
2018-11-14T01:41:59.885Z,11.46
2018-11-14T01:42:12.311Z,11.46
2018-11-14T01:42:24.710Z,11.46
2018-11-14T01:42:37.093Z,11.46
2018-11-14T01:42:49.493Z,11.46
2018-11-14T01:43:01.988Z,11.27
2018-11-14T01:43:14.374Z,11.27
2018-11-14T01:43:26.771Z,11.27
2018-11-14T01:43:39.161Z,11.27
2018-11-14T01:43:51.555Z,11.27
2018-11-14T01:44:03.933Z,11.27
2018-11-14T01:44:16.356Z,11.27
2018-11-14T01:44:29.068Z,11.27
2018-11-14T01:44:41.450Z,11.27
2018-11-14T01:44:53.917Z,11.27
2018-11-14T01:45:06.335Z,11.27
2018-11-14T01:45:18.840Z,11.27
2018-11-14T01:45:31.263Z,11.27
2018-11-14T01:45:43.657Z,11.27
2018-11-14T01:45:56.085Z,11.27
2018-11-14T01:46:08.496Z,11.27
2018-11-14T01:46:20.891Z,11.27
2018-11-14T01:46:33.274Z,11.27
2018-11-14T01:46:45.673Z,11.27
2018-11-14T01:46:58.081Z,11.27
2018-11-14T01:47:10.545Z,11.27
2018-11-14T01:47:22.945Z,11.27
2018-11-14T01:47:35.319Z,11.27
2018-11-14T01:47:47.945Z,11.27
2018-11-14T01:48:00.337Z,11.27
2018-11-14T01:48:12.726Z,11.27
2018-11-14T01:48:25.106Z,11.27
2018-11-14T01:48:37.510Z,11.27
2018-11-14T01:48:49.910Z,11.27
2018-11-14T01:49:02.318Z,11.27
2018-11-14T01:49:14.710Z,11.27
2018-11-14T01:49:27.105Z,11.27
2018-11-14T01:49:39.491Z,11.27
2018-11-14T01:49:52.125Z,11.27
2018-11-14T01:50:04.662Z,11.27
2018-11-14T01:50:17.074Z,11.27
2018-11-14T01:50:29.484Z,11.27
2018-11-14T01:50:41.875Z,11.27
2018-11-14T01:50:54.270Z,11.27
2018-11-14T01:51:06.658Z,11.27
2018-11-14T01:51:19.066Z,11.27
2018-11-14T01:51:31.458Z,11.27
2018-11-14T01:51:43.840Z,11.27
2018-11-14T01:51:56.238Z,11.27
2018-11-14T01:52:08.749Z,11.27
2018-11-14T01:52:21.176Z,11.27
2018-11-14T01:52:33.570Z,11.27
2018-11-14T01:52:45.973Z,11.27
2018-11-14T01:52:58.427Z,11.57
2018-11-14T01:53:10.827Z,11.57
2018-11-14T01:53:23.254Z,11.57
2018-11-14T01:53:35.784Z,11.57
2018-11-14T01:53:48.238Z,11.57
2018-11-14T01:54:00.617Z,11.57
2018-11-14T01:54:13.079Z,11.57
2018-11-14T01:54:25.470Z,11.57
2018-11-14T01:54:37.860Z,11.57
2018-11-14T01:54:50.418Z,11.57
2018-11-14T01:55:02.812Z,11.57
2018-11-14T01:55:15.318Z,11.57
2018-11-14T01:55:27.776Z,11.57
2018-11-14T01:55:40.175Z,11.57
2018-11-14T01:55:52.563Z,11.57
2018-11-14T01:56:04.962Z,11.57
2018-11-14T01:56:17.363Z,11.57
2018-11-14T01:56:29.774Z,11.57
2018-11-14T01:56:42.172Z,11.57
2018-11-14T01:56:54.557Z,11.57
2018-11-14T01:57:06.950Z,11.57
2018-11-14T01:57:19.343Z,11.57
2018-11-14T01:57:31.749Z,11.57
2018-11-14T01:57:44.151Z,11.57
2018-11-14T01:57:56.570Z,11.57
2018-11-14T01:58:08.977Z,11.57
2018-11-14T01:58:21.374Z,11.57
2018-11-14T01:58:33.772Z,11.57
2018-11-14T01:58:46.171Z,11.57
2018-11-14T01:58:58.568Z,11.57
2018-11-14T01:59:11.020Z,11.57
2018-11-14T01:59:23.446Z,11.57
2018-11-14T01:59:35.830Z,11.57
2018-11-14T01:59:48.215Z,11.57
2018-11-14T02:00:00.651Z,11.57
2018-11-14T02:00:13.093Z,11.57
2018-11-14T02:00:25.547Z,11.57
2018-11-14T02:00:37.959Z,11.57
2018-11-14T02:00:50.363Z,11.57
2018-11-14T02:01:02.768Z,11.57
2018-11-14T02:01:15.357Z,11.57
2018-11-14T02:01:27.767Z,11.57
2018-11-14T02:01:40.178Z,11.57
2018-11-14T02:01:52.612Z,11.57
2018-11-14T02:02:05.011Z,11.57
2018-11-14T02:02:17.404Z,11.57
2018-11-14T02:02:29.796Z,11.57
2018-11-14T02:02:42.178Z,11.57
2018-11-14T02:02:54.581Z,17.5
2018-11-14T02:03:06.984Z,17.5
2018-11-14T02:03:19.514Z,17.5
2018-11-14T02:03:31.913Z,17.5
2018-11-14T02:03:44.318Z,17.5
2018-11-14T02:03:56.703Z,17.5
2018-11-14T02:04:09.163Z,17.5
2018-11-14T02:04:21.547Z,17.5
2018-11-14T02:04:33.945Z,17.5
2018-11-14T02:04:46.328Z,17.5
2018-11-14T02:04:58.862Z,17.5
2018-11-14T02:05:11.322Z,17.5
2018-11-14T02:05:23.880Z,17.5
2018-11-14T02:05:36.294Z,17.5
2018-11-14T02:05:48.681Z,17.5
2018-11-14T02:06:01.089Z,17.5
2018-11-14T02:06:13.468Z,17.5
2018-11-14T02:06:26.042Z,17.5
2018-11-14T02:06:38.423Z,17.5
2018-11-14T02:06:50.808Z,17.5
2018-11-14T02:07:03.189Z,17.5
2018-11-14T02:07:15.683Z,17.5
2018-11-14T02:07:28.080Z,17.5
2018-11-14T02:07:40.493Z,17.5
2018-11-14T02:07:52.884Z,17.5
2018-11-14T02:08:05.298Z,17.5
2018-11-14T02:08:17.688Z,17.5
2018-11-14T02:08:30.098Z,17.5
2018-11-14T02:08:42.478Z,17.5
2018-11-14T02:08:54.862Z,17.5
2018-11-14T02:09:07.242Z,17.5
2018-11-14T02:09:19.663Z,17.5
2018-11-14T02:09:32.054Z,17.5
2018-11-14T02:09:44.445Z,17.5
2018-11-14T02:09:56.831Z,17.5
2018-11-14T02:10:09.226Z,17.5
2018-11-14T02:10:21.759Z,17.5
2018-11-14T02:10:34.154Z,17.5
2018-11-14T02:10:46.627Z,17.5
2018-11-14T02:10:59.028Z,17.5
2018-11-14T02:11:11.520Z,17.5
2018-11-14T02:11:23.940Z,17.5
2018-11-14T02:11:36.333Z,17.5
2018-11-14T02:11:48.730Z,17.5
2018-11-14T02:12:01.138Z,17.5
2018-11-14T02:12:13.539Z,17.5
2018-11-14T02:12:25.945Z,17.5
2018-11-14T02:12:38.343Z,17.5
2018-11-14T02:12:50.764Z,17.5
2018-11-14T02:13:03.169Z,12.55
2018-11-14T02:13:15.553Z,12.55
2018-11-14T02:13:27.951Z,12.55
2018-11-14T02:13:40.356Z,12.55
2018-11-14T02:13:52.749Z,12.55
2018-11-14T02:14:05.157Z,12.55
2018-11-14T02:14:17.541Z,12.55
2018-11-14T02:14:29.944Z,12.55
2018-11-14T02:14:42.341Z,12.55
2018-11-14T02:14:54.870Z,12.55
2018-11-14T02:15:07.267Z,12.55
2018-11-14T02:15:19.666Z,12.55
2018-11-14T02:15:32.075Z,12.55
2018-11-14T02:15:44.473Z,12.55
2018-11-14T02:15:57.000Z,12.55
2018-11-14T02:16:09.420Z,12.55
2018-11-14T02:16:21.808Z,12.55
2018-11-14T02:16:34.193Z,12.55
2018-11-14T02:16:46.631Z,12.55
2018-11-14T02:16:59.041Z,12.55
2018-11-14T02:17:11.485Z,12.55
2018-11-14T02:17:23.938Z,12.55
2018-11-14T02:17:36.327Z,12.55
2018-11-14T02:17:48.750Z,12.55
2018-11-14T02:18:01.162Z,12.55
2018-11-14T02:18:13.558Z,12.55
2018-11-14T02:18:25.956Z,12.55
2018-11-14T02:18:38.349Z,12.55
2018-11-14T02:18:50.742Z,12.55
2018-11-14T02:19:03.139Z,12.55
2018-11-14T02:19:15.524Z,12.55
2018-11-14T02:19:27.924Z,12.55
2018-11-14T02:19:40.458Z,12.55
2018-11-14T02:19:52.888Z,12.55
2018-11-14T02:20:05.304Z,12.55
2018-11-14T02:20:18.004Z,12.55
2018-11-14T02:20:30.407Z,12.55
2018-11-14T02:20:42.786Z,12.55
2018-11-14T02:20:55.235Z,12.55
2018-11-14T02:21:07.623Z,12.55
2018-11-14T02:21:20.018Z,12.55
2018-11-14T02:21:32.401Z,12.55
2018-11-14T02:21:44.793Z,12.55
2018-11-14T02:21:57.169Z,12.55
2018-11-14T02:22:09.547Z,12.55
2018-11-14T02:22:21.959Z,12.55
2018-11-14T02:22:34.360Z,12.55
2018-11-14T02:22:46.743Z,12.55
2018-11-14T02:22:59.142Z,15.86
2018-11-14T02:23:11.536Z,15.86
2018-11-14T02:23:23.926Z,15.86
2018-11-14T02:23:36.319Z,15.86
2018-11-14T02:23:48.714Z,15.86
2018-11-14T02:24:01.118Z,15.86
2018-11-14T02:24:13.505Z,15.86
2018-11-14T02:24:25.898Z,15.86
2018-11-14T02:24:38.277Z,15.86
2018-11-14T02:24:50.697Z,15.86
2018-11-14T02:25:03.119Z,15.86
2018-11-14T02:25:15.627Z,15.86
2018-11-14T02:25:28.185Z,15.86
2018-11-14T02:25:40.575Z,15.86
2018-11-14T02:25:52.963Z,15.86
2018-11-14T02:26:05.363Z,15.86
2018-11-14T02:26:17.798Z,15.86
2018-11-14T02:26:30.181Z,15.86
2018-11-14T02:26:42.558Z,15.86
2018-11-14T02:26:54.952Z,15.86
2018-11-14T02:27:07.404Z,15.86
2018-11-14T02:27:19.788Z,15.86
2018-11-14T02:27:32.237Z,15.86
2018-11-14T02:27:44.640Z,15.86
2018-11-14T02:27:57.009Z,15.86
2018-11-14T02:28:09.395Z,15.86
2018-11-14T02:28:21.797Z,15.86
2018-11-14T02:28:34.174Z,15.86
2018-11-14T02:28:46.580Z,15.86
2018-11-14T02:28:58.994Z,15.86
2018-11-14T02:29:11.565Z,15.86
2018-11-14T02:29:23.955Z,15.86
2018-11-14T02:29:36.357Z,15.86
2018-11-14T02:29:48.755Z,15.86
2018-11-14T02:30:01.187Z,15.86
2018-11-14T02:30:13.640Z,15.86
2018-11-14T02:30:26.127Z,15.86
2018-11-14T02:30:38.523Z,15.86
2018-11-14T02:30:50.960Z,15.86
2018-11-14T02:31:03.377Z,15.86
2018-11-14T02:31:15.816Z,15.86
2018-11-14T02:31:28.205Z,15.86
2018-11-14T02:31:40.623Z,15.86
2018-11-14T02:31:53.037Z,15.86
2018-11-14T02:32:05.449Z,15.86
2018-11-14T02:32:17.886Z,15.86
2018-11-14T02:32:30.314Z,15.86
2018-11-14T02:32:42.731Z,15.86
2018-11-14T02:32:55.208Z,15.1
2018-11-14T02:33:07.600Z,15.1
2018-11-14T02:33:20.050Z,15.1
2018-11-14T02:33:32.466Z,15.1
2018-11-14T02:33:44.859Z,15.1
2018-11-14T02:33:57.276Z,15.1
2018-11-14T02:34:09.666Z,15.1
2018-11-14T02:34:22.149Z,15.1
2018-11-14T02:34:34.571Z,15.1
2018-11-14T02:34:46.964Z,15.1
2018-11-14T02:34:59.541Z,15.1
2018-11-14T02:35:11.995Z,15.1
2018-11-14T02:35:24.581Z,15.1
2018-11-14T02:35:37.177Z,15.1
2018-11-14T02:35:49.570Z,15.1
2018-11-14T02:36:01.966Z,15.1
2018-11-14T02:36:14.421Z,15.1
2018-11-14T02:36:26.980Z,15.1
2018-11-14T02:36:39.411Z,15.1
2018-11-14T02:36:51.833Z,15.1
2018-11-14T02:37:04.330Z,15.1
2018-11-14T02:37:16.739Z,15.1
2018-11-14T02:37:29.640Z,15.1
2018-11-14T02:37:42.399Z,15.1
2018-11-14T02:37:55.104Z,15.1
2018-11-14T02:38:07.703Z,15.1
2018-11-14T02:38:20.105Z,15.1
2018-11-14T02:38:33.410Z,15.1
2018-11-14T02:38:45.806Z,15.1
2018-11-14T02:38:58.213Z,15.1
2018-11-14T02:39:10.641Z,15.1
2018-11-14T02:39:23.069Z,15.1
2018-11-14T02:39:35.469Z,15.1
2018-11-14T02:39:47.859Z,15.1
2018-11-14T02:40:00.258Z,15.1
2018-11-14T02:40:12.688Z,15.1
2018-11-14T02:40:25.197Z,15.1
2018-11-14T02:40:37.606Z,15.1
2018-11-14T02:40:50.031Z,15.1
2018-11-14T02:41:02.452Z,15.1
2018-11-14T02:41:14.928Z,15.1
2018-11-14T02:41:27.352Z,15.1
2018-11-14T02:41:39.758Z,15.1
2018-11-14T02:41:52.184Z,15.1
2018-11-14T02:42:04.605Z,15.1
2018-11-14T02:42:17.021Z,15.1
2018-11-14T02:42:29.440Z,15.1
2018-11-14T02:42:41.922Z,15.1
2018-11-14T02:42:54.359Z,16.1
2018-11-14T02:43:06.851Z,16.1
2018-11-14T02:43:19.267Z,16.1
2018-11-14T02:43:31.666Z,16.1
2018-11-14T02:43:44.064Z,16.1
2018-11-14T02:43:56.483Z,16.1
2018-11-14T02:44:08.869Z,16.1
2018-11-14T02:44:21.280Z,16.1